Prins Christian Sund

KL  EN  DA
ASIAQ
Weather Now GREENLAND SURVEY
Updated [WGT/WGST] Temperature [°C] Wind [m/s] Air pressure [hPa] Relative humidity [%] Precipitation [mm]
Present Wind chill Speed Max
30.11 16:00-1,4-8,48,6 ⇘22,997985n/a
30.11 15:00-0,4-8,915,0 ⇓28,897876n/a
30.11 14:00-0,5-9,919,0 ⇓28,297972n/a
30.11 13:00-1,0-10,116,5 ⇓24,697976n/a
30.11 12:00-1,2-9,914,5 ⇓26,098281n/a
30.11 11:00-1,6-11,016,7 ⇓27,598285n/a
30.11 10:00-1,9-12,321,4 ⇓31,198390n/a
30.11 09:00-1,4-11,319,5 ⇓31,4984910,2
30.11 08:00-1,1-10,819,2 ⇓32,498589n/a
30.11 07:00-1,4-11,319,5 ⇓32,798790n/a
30.11 06:00-1,7-11,719,5 ⇓30,898791n/a
30.11 05:00-1,8-11,919,7 ⇓30,598990n/a
30.11 04:00-2,1-12,118,7 ⇓28,399192n/a
30.11 03:00-2,0-11,817,8 ⇓27,499293n/a
30.11 02:00-2,2-11,515,5 ⇓23,799492n/a
30.11 01:00-2,2-11,415,2 ⇓22,799592n/a
30.11 00:00-2,6-11,613,5 ⇓20,599892n/a
29.11 23:00-1,1-9,613,7 ⇓20,1100078n/a
29.11 22:00-1,2-8,910,8 ⇓16,2100177n/a
29.11 21:00-1,5-8,27,7 ⇓13,0100365n/a
29.11 20:00-2,1-7,44,7 ⇓10,5100481n/a
29.11 19:00-2,1-8,56,7 ⇓10,6100481n/a
29.11 18:00-2,0-8,16,3 ⇓10,1100484n/a
29.11 17:00-2,7-5,92,2 ⇘4,0100484n/a
29.11 16:00-2,8-5,92,1 ⇘4,3100477n/a
Position: (60.05527777,-43.16527777)

[Back]